createdAt,value
2022-11-21T00:01:14.709Z,111.13
2022-11-21T00:03:41.219Z,120.63
2022-11-21T00:06:07.786Z,121.80
2022-11-21T00:08:34.930Z,123.87
2022-11-21T00:11:01.475Z,119.93
2022-11-21T00:13:27.941Z,123.97
2022-11-21T00:15:54.464Z,129.80
2022-11-21T00:18:20.897Z,121.10
2022-11-21T00:20:47.358Z,129.23
2022-11-21T00:23:13.975Z,117.20
2022-11-21T00:25:40.448Z,117.83
2022-11-21T00:28:06.925Z,124.13
2022-11-21T00:30:34.095Z,124.30
2022-11-21T00:33:00.625Z,110.33
2022-11-21T00:35:27.352Z,127.63
2022-11-21T00:37:53.799Z,124.17
2022-11-21T00:40:20.334Z,126.63
2022-11-21T00:42:46.937Z,118.53
2022-11-21T00:45:13.564Z,127.67
2022-11-21T00:47:39.986Z,126.83
2022-11-21T00:50:06.767Z,119.00
2022-11-21T00:52:33.786Z,129.00
2022-11-21T00:55:00.466Z,115.67
2022-11-21T00:57:26.980Z,118.50
2022-11-21T00:59:53.567Z,126.50
2022-11-21T01:02:20.028Z,125.03
2022-11-21T01:04:46.521Z,122.57
2022-11-21T01:07:14.639Z,122.13
2022-11-21T01:09:41.278Z,115.73
2022-11-21T01:12:07.846Z,129.13
2022-11-21T01:14:35.120Z,112.90
2022-11-21T01:17:01.617Z,128.57
2022-11-21T01:19:28.059Z,122.53
2022-11-21T01:21:54.502Z,124.43
2022-11-21T01:24:21.047Z,122.20
2022-11-21T01:26:49.079Z,119.83
2022-11-21T01:29:15.507Z,126.07
2022-11-21T01:31:41.980Z,117.83
2022-11-21T01:34:08.436Z,128.73
2022-11-21T01:36:35.388Z,117.43
2022-11-21T01:39:04.755Z,120.33
2022-11-21T01:41:37.282Z,122.17
2022-11-21T01:44:14.146Z,118.00
2022-11-21T01:46:40.746Z,116.93
2022-11-21T01:49:14.168Z,118.67
2022-11-21T01:51:54.460Z,114.53
2022-11-21T01:54:40.703Z,117.37
2022-11-21T01:57:35.235Z,121.10
2022-11-21T02:00:06.980Z,124.63
2022-11-21T02:02:36.885Z,118.13
2022-11-21T02:05:05.244Z,114.63
2022-11-21T02:07:36.018Z,119.90
2022-11-21T02:10:03.459Z,113.97
2022-11-21T02:12:34.903Z,126.40
2022-11-21T02:15:01.900Z,132.97
2022-11-21T02:17:31.452Z,130.67
2022-11-21T02:19:59.863Z,128.10
2022-11-21T02:22:39.787Z,131.50
2022-11-21T02:25:12.863Z,116.27
2022-11-21T02:27:39.443Z,131.43
2022-11-21T02:30:08.605Z,126.90
2022-11-21T02:32:38.116Z,128.27
2022-11-21T02:35:05.488Z,122.23
2022-11-21T02:37:32.538Z,129.07
2022-11-21T02:40:01.751Z,130.83
2022-11-21T02:42:32.402Z,122.80
2022-11-21T02:45:19.668Z,131.63
2022-11-21T02:47:47.063Z,131.80
2022-11-21T02:50:16.851Z,136.60
2022-11-21T02:52:43.311Z,131.70
2022-11-21T02:55:11.597Z,128.07
2022-11-21T02:57:39.721Z,137.50
2022-11-21T03:00:06.721Z,122.37
2022-11-21T03:02:35.697Z,129.87
2022-11-21T03:05:02.763Z,132.90
2022-11-21T03:07:29.338Z,128.03
2022-11-21T03:09:55.901Z,123.37
2022-11-21T03:12:22.442Z,126.67
2022-11-21T03:14:49.076Z,130.10
2022-11-21T03:17:15.522Z,127.87
2022-11-21T03:19:41.994Z,135.27
2022-11-21T03:22:08.779Z,129.50
2022-11-21T03:24:35.492Z,129.40
2022-11-21T03:27:02.062Z,124.70
2022-11-21T03:29:28.634Z,131.93
2022-11-21T03:31:55.221Z,129.87
2022-11-21T03:34:21.772Z,133.27
2022-11-21T03:36:48.394Z,130.00
2022-11-21T03:39:14.954Z,138.53
2022-11-21T03:41:41.437Z,132.33
2022-11-21T03:44:10.036Z,135.30
2022-11-21T03:46:38.310Z,133.60
2022-11-21T03:49:05.540Z,135.83
2022-11-21T03:51:32.353Z,123.40
2022-11-21T03:53:59.415Z,129.70
2022-11-21T03:56:26.398Z,136.50
2022-11-21T03:58:53.696Z,141.07
2022-11-21T04:01:20.659Z,134.63
2022-11-21T04:03:47.482Z,131.77
2022-11-21T04:06:16.146Z,128.87
2022-11-21T04:08:43.260Z,134.73
2022-11-21T04:11:10.660Z,129.37
2022-11-21T04:13:38.017Z,123.23
2022-11-21T04:16:05.125Z,125.27
2022-11-21T04:18:31.689Z,132.50
2022-11-21T04:20:59.477Z,116.37
2022-11-21T04:23:26.462Z,123.10
2022-11-21T04:25:53.663Z,121.20
2022-11-21T04:28:21.499Z,124.40
2022-11-21T04:30:47.927Z,127.47
2022-11-21T04:33:15.369Z,124.80
2022-11-21T04:35:43.517Z,132.33
2022-11-21T04:38:10.525Z,142.50
2022-11-21T04:40:37.332Z,133.70
2022-11-21T04:43:04.425Z,134.40
2022-11-21T04:45:30.862Z,126.17
2022-11-21T04:47:57.348Z,129.50
2022-11-21T04:50:23.867Z,124.63
2022-11-21T04:52:55.751Z,124.67
2022-11-21T04:55:24.495Z,136.67
2022-11-21T04:57:50.981Z,129.57
2022-11-21T05:00:23.729Z,120.40
2022-11-21T05:02:51.007Z,128.60
2022-11-21T05:05:17.818Z,129.63
2022-11-21T05:07:44.314Z,127.60
2022-11-21T05:10:11.153Z,136.50
2022-11-21T05:12:56.426Z,134.80
2022-11-21T05:15:24.841Z,128.03
2022-11-21T05:17:51.874Z,126.27
2022-11-21T05:20:18.873Z,131.67
2022-11-21T05:22:50.461Z,121.93
2022-11-21T05:25:17.048Z,133.17
2022-11-21T05:27:43.553Z,130.33
2022-11-21T05:30:11.324Z,130.03
2022-11-21T05:32:37.850Z,137.63
2022-11-21T05:35:04.600Z,150.23
2022-11-21T05:37:31.221Z,136.70
2022-11-21T05:39:57.819Z,142.33
2022-11-21T05:42:44.682Z,147.63
2022-11-21T05:45:11.242Z,139.77
2022-11-21T05:47:37.708Z,140.63
2022-11-21T05:50:04.826Z,137.10
2022-11-21T05:52:31.338Z,143.00
2022-11-21T05:54:57.771Z,139.37
2022-11-21T05:57:24.358Z,139.27
2022-11-21T05:59:50.896Z,150.00
2022-11-21T06:02:36.225Z,146.03
2022-11-21T06:05:02.787Z,148.37
2022-11-21T06:07:29.356Z,142.23
2022-11-21T06:09:55.894Z,169.00
2022-11-21T06:12:25.397Z,148.20
2022-11-21T06:14:52.629Z,150.27
2022-11-21T06:17:19.492Z,150.13
2022-11-21T06:19:46.106Z,151.27
2022-11-21T06:22:12.605Z,147.53
2022-11-21T06:24:39.259Z,148.17
2022-11-21T06:27:05.751Z,140.87
2022-11-21T06:29:32.253Z,145.97
2022-11-21T06:31:58.788Z,143.50
2022-11-21T06:34:28.086Z,144.50
2022-11-21T06:36:54.614Z,147.67
2022-11-21T06:39:21.357Z,166.20
2022-11-21T06:41:51.281Z,147.43
2022-11-21T06:44:20.477Z,135.67
2022-11-21T06:46:50.977Z,126.97
2022-11-21T06:49:18.143Z,130.53
2022-11-21T06:51:44.568Z,138.90
2022-11-21T06:54:16.259Z,139.37
2022-11-21T06:56:43.724Z,133.43
2022-11-21T06:59:10.222Z,117.73
2022-11-21T07:01:37.022Z,132.03
2022-11-21T07:04:03.589Z,120.93
2022-11-21T07:06:30.006Z,121.53
2022-11-21T07:09:32.089Z,121.47
2022-11-21T07:11:43.473Z,114.47
2022-11-21T07:14:10.211Z,127.87
2022-11-21T07:16:37.048Z,140.87
2022-11-21T07:19:03.604Z,120.93
2022-11-21T07:21:30.290Z,119.27
2022-11-21T07:23:56.903Z,118.87
2022-11-21T07:26:23.512Z,116.23
2022-11-21T07:28:50.500Z,102.57
2022-11-21T07:31:17.034Z,108.50
2022-11-21T07:33:43.814Z,117.33
2022-11-21T07:36:11.394Z,120.73
2022-11-21T07:38:37.964Z,104.37
2022-11-21T07:41:04.642Z,108.17
2022-11-21T07:43:31.250Z,103.80
2022-11-21T07:45:57.711Z,104.57
2022-11-21T07:48:24.150Z,102.20
2022-11-21T07:50:50.597Z,104.20
2022-11-21T07:53:17.138Z,93.47
2022-11-21T07:55:43.663Z,101.70
2022-11-21T07:58:12.667Z,106.10
2022-11-21T08:00:42.667Z,99.23
2022-11-21T08:03:09.839Z,91.33
2022-11-21T08:05:41.197Z,96.67
2022-11-21T08:08:08.279Z,82.13
2022-11-21T08:10:40.469Z,91.87
2022-11-21T08:13:07.227Z,89.70
2022-11-21T08:15:34.367Z,83.93
2022-11-21T08:18:14.869Z,86.73
2022-11-21T08:20:42.029Z,83.73
2022-11-21T08:23:10.068Z,80.33
2022-11-21T08:25:40.163Z,63.63
2022-11-21T08:28:09.186Z,71.10
2022-11-21T08:30:36.581Z,67.30
2022-11-21T08:33:04.117Z,62.67
2022-11-21T08:35:30.972Z,61.43
2022-11-21T08:37:58.402Z,68.63
2022-11-21T08:40:26.473Z,65.67
2022-11-21T08:42:59.142Z,67.17
2022-11-21T08:45:26.941Z,61.97
2022-11-21T08:47:54.020Z,68.10
2022-11-21T08:50:20.991Z,60.53
2022-11-21T08:52:47.599Z,55.87
2022-11-21T08:55:14.287Z,61.20
2022-11-21T08:57:41.378Z,69.13
2022-11-21T09:00:09.597Z,62.70
2022-11-21T09:02:36.488Z,69.13
2022-11-21T09:05:03.142Z,57.20
2022-11-21T09:07:29.670Z,58.57
2022-11-21T09:09:56.136Z,59.07
2022-11-21T09:12:22.577Z,58.37
2022-11-21T09:15:07.558Z,56.67
2022-11-21T09:17:52.996Z,54.07
2022-11-21T09:20:19.554Z,59.47
2022-11-21T09:22:47.034Z,58.13
2022-11-21T09:25:13.802Z,57.40
2022-11-21T09:27:40.371Z,64.43
2022-11-21T09:30:07.572Z,59.83
2022-11-21T09:32:34.622Z,54.30
2022-11-21T09:35:01.306Z,54.77
2022-11-21T09:37:27.840Z,54.40
2022-11-21T09:39:54.333Z,59.20
2022-11-21T09:42:46.287Z,55.53
2022-11-21T09:45:13.170Z,52.03
2022-11-21T09:47:44.550Z,54.33
2022-11-21T09:50:13.724Z,50.93
2022-11-21T09:52:50.763Z,68.60
2022-11-21T09:55:26.632Z,55.33
2022-11-21T09:57:53.921Z,65.30
2022-11-21T10:00:25.182Z,67.07
2022-11-21T10:02:52.263Z,59.97
2022-11-21T10:05:26.135Z,56.87
2022-11-21T10:07:54.146Z,54.53
2022-11-21T10:10:55.377Z,59.60
2022-11-21T10:13:28.856Z,60.67
2022-11-21T10:16:06.064Z,54.90
2022-11-21T10:18:54.071Z,58.60
2022-11-21T10:21:53.958Z,56.00
2022-11-21T10:24:28.505Z,60.80
2022-11-21T10:26:59.144Z,56.37
2022-11-21T10:29:32.795Z,52.43
2022-11-21T10:32:03.734Z,57.70
2022-11-21T10:34:32.907Z,56.07
2022-11-21T10:37:09.084Z,61.27
2022-11-21T10:39:41.631Z,64.53
2022-11-21T10:42:39.300Z,66.37
2022-11-21T10:45:17.028Z,65.40
2022-11-21T10:47:45.135Z,68.90
2022-11-21T10:50:20.607Z,65.50
2022-11-21T10:52:51.367Z,71.57
2022-11-21T10:55:18.279Z,70.63
2022-11-21T10:57:51.967Z,67.20
2022-11-21T11:00:22.566Z,75.97
2022-11-21T11:03:00.282Z,69.37
2022-11-21T11:05:31.134Z,75.90
2022-11-21T11:08:10.616Z,70.43
2022-11-21T11:11:01.817Z,75.47
2022-11-21T11:13:46.940Z,67.23
2022-11-21T11:16:18.732Z,69.30
2022-11-21T11:18:47.977Z,75.67
2022-11-21T11:21:26.400Z,67.47
2022-11-21T11:23:54.026Z,67.93
2022-11-21T11:26:24.484Z,67.07
2022-11-21T11:28:51.693Z,71.50
2022-11-21T11:31:18.281Z,74.73
2022-11-21T11:33:47.348Z,68.60
2022-11-21T11:36:31.994Z,71.67
2022-11-21T11:38:59.700Z,72.43
2022-11-21T11:42:03.467Z,71.60
2022-11-21T11:44:59.777Z,70.80
2022-11-21T11:47:32.628Z,65.20
2022-11-21T11:50:13.083Z,75.63
2022-11-21T11:52:47.071Z,70.27
2022-11-21T11:55:22.051Z,60.67
2022-11-21T11:57:50.938Z,67.70
2022-11-21T12:00:32.748Z,72.23
2022-11-21T12:03:15.164Z,61.87
2022-11-21T12:06:08.959Z,68.30
2022-11-21T12:08:44.813Z,63.93
2022-11-21T12:11:41.083Z,60.53
2022-11-21T12:14:35.470Z,68.27
2022-11-21T12:17:05.303Z,62.67
2022-11-21T12:19:32.068Z,63.17
2022-11-21T12:21:58.642Z,64.87
2022-11-21T12:24:25.094Z,58.83
2022-11-21T12:27:28.280Z,73.37
2022-11-21T12:30:14.712Z,70.20
2022-11-21T12:33:09.253Z,68.03
2022-11-21T12:35:35.808Z,61.93
2022-11-21T12:38:21.988Z,63.73
2022-11-21T12:41:27.043Z,64.83
2022-11-21T12:44:07.423Z,61.30
2022-11-21T12:46:52.539Z,63.03
2022-11-21T12:49:56.402Z,63.73
2022-11-21T12:52:44.248Z,64.40
2022-11-21T12:55:35.532Z,61.83
2022-11-21T12:58:17.813Z,60.30
2022-11-21T13:01:06.959Z,76.90
2022-11-21T13:03:44.970Z,67.70
2022-11-21T13:06:33.897Z,75.47
2022-11-21T13:09:02.584Z,60.97
2022-11-21T13:11:58.916Z,63.33
2022-11-21T13:14:29.965Z,61.50
2022-11-21T13:17:11.965Z,70.10
2022-11-21T13:19:58.068Z,62.50
2022-11-21T13:22:36.579Z,67.93
2022-11-21T13:25:40.913Z,62.47
2022-11-21T13:28:13.879Z,75.20
2022-11-21T13:30:54.063Z,74.57
2022-11-21T13:33:35.993Z,67.53
2022-11-21T13:36:06.051Z,69.93
2022-11-21T13:38:55.849Z,69.37
2022-11-21T13:41:54.724Z,73.40
2022-11-21T13:44:35.595Z,76.73
2022-11-21T13:47:12.464Z,70.30
2022-11-21T13:50:17.096Z,69.90
2022-11-21T13:53:04.795Z,69.03
2022-11-21T13:56:29.993Z,76.20
2022-11-21T13:59:24.578Z,83.17
2022-11-21T14:02:39.693Z,73.63
2022-11-21T14:05:36.983Z,76.37
2022-11-21T14:08:33.851Z,71.17
2022-11-21T14:11:19.251Z,74.60
2022-11-21T14:13:48.499Z,73.87
2022-11-21T14:16:29.496Z,70.20
2022-11-21T14:18:56.407Z,78.20
2022-11-21T14:21:27.185Z,74.33
2022-11-21T14:23:57.440Z,88.50
2022-11-21T14:26:25.581Z,79.27
2022-11-21T14:28:52.277Z,77.73
2022-11-21T14:31:19.199Z,73.50
2022-11-21T14:33:47.578Z,73.70
2022-11-21T14:36:14.972Z,80.00
2022-11-21T14:38:44.298Z,75.27
2022-11-21T14:41:28.912Z,78.30
2022-11-21T14:43:58.795Z,81.22
2022-11-21T14:46:27.404Z,78.00
2022-11-21T14:48:54.186Z,78.57
2022-11-21T14:51:22.556Z,84.57
2022-11-21T14:53:50.853Z,78.33
2022-11-21T14:56:21.144Z,85.37
2022-11-21T14:58:48.212Z,87.47
2022-11-21T15:01:22.527Z,83.17
2022-11-21T15:04:15.595Z,88.80
2022-11-21T15:06:43.990Z,92.93
2022-11-21T15:10:25.504Z,89.17
2022-11-21T15:12:06.030Z,90.00
2022-11-21T15:14:43.558Z,94.33
2022-11-21T15:17:16.097Z,91.27
2022-11-21T15:19:43.485Z,85.03
2022-11-21T15:22:23.517Z,101.87
2022-11-21T15:24:50.610Z,101.47
2022-11-21T15:27:44.226Z,109.80
2022-11-21T15:30:10.576Z,105.30
2022-11-21T15:33:03.230Z,103.33
2022-11-21T15:35:35.902Z,108.73
2022-11-21T15:38:02.965Z,114.60
2022-11-21T15:40:29.837Z,113.57
2022-11-21T15:42:56.447Z,110.17
2022-11-21T15:45:25.761Z,119.23
2022-11-21T15:47:52.773Z,106.77
2022-11-21T15:50:22.764Z,112.93
2022-11-21T15:52:51.418Z,113.17
2022-11-21T15:55:29.410Z,118.20
2022-11-21T15:57:56.161Z,114.93
2022-11-21T16:00:22.995Z,111.30
2022-11-21T16:02:49.649Z,115.53
2022-11-21T16:05:16.761Z,124.97
2022-11-21T16:07:43.339Z,117.30
2022-11-21T16:10:18.255Z,118.97
2022-11-21T16:12:47.904Z,107.97
2022-11-21T16:15:14.576Z,122.60
2022-11-21T16:17:41.715Z,120.87
2022-11-21T16:20:08.804Z,108.30
2022-11-21T16:22:41.464Z,109.57
2022-11-21T16:25:10.917Z,112.27
2022-11-21T16:27:37.407Z,102.20
2022-11-21T16:30:04.238Z,115.20
2022-11-21T16:32:30.678Z,110.67
2022-11-21T16:34:58.308Z,113.07
2022-11-21T16:37:25.009Z,106.23
2022-11-21T16:39:54.443Z,117.60
2022-11-21T16:42:20.926Z,118.33
2022-11-21T16:44:48.132Z,119.47
2022-11-21T16:47:15.023Z,121.90
2022-11-21T16:49:48.483Z,126.80
2022-11-21T16:52:15.572Z,116.53
2022-11-21T16:54:42.258Z,123.30
2022-11-21T16:57:08.772Z,119.80
2022-11-21T16:59:37.686Z,123.77
2022-11-21T17:02:04.215Z,116.10
2022-11-21T17:04:31.026Z,124.77
2022-11-21T17:06:57.876Z,123.43
2022-11-21T17:09:24.609Z,114.77
2022-11-21T17:11:51.283Z,119.97
2022-11-21T17:14:17.726Z,112.77
2022-11-21T17:16:45.792Z,117.03
2022-11-21T17:19:12.649Z,122.30
2022-11-21T17:21:39.186Z,108.90
2022-11-21T17:24:06.031Z,114.90
2022-11-21T17:26:36.110Z,108.30
2022-11-21T17:29:05.776Z,115.80
2022-11-21T17:31:32.581Z,110.13
2022-11-21T17:34:00.691Z,113.37
2022-11-21T17:36:29.120Z,111.80
2022-11-21T17:38:55.925Z,111.80
2022-11-21T17:41:23.774Z,107.73
2022-11-21T17:43:53.984Z,110.30
2022-11-21T17:46:20.612Z,104.00
2022-11-21T17:48:54.636Z,107.13
2022-11-21T17:51:25.574Z,112.93
2022-11-21T17:53:52.581Z,114.93
2022-11-21T17:56:21.466Z,107.33
2022-11-21T17:58:48.315Z,109.37
2022-11-21T18:01:19.469Z,102.43
2022-11-21T18:03:47.665Z,113.80
2022-11-21T18:06:16.220Z,106.00
2022-11-21T18:08:44.315Z,106.23
2022-11-21T18:11:12.728Z,106.37
2022-11-21T18:13:39.766Z,99.87
2022-11-21T18:16:08.584Z,113.60
2022-11-21T18:18:36.191Z,101.00
2022-11-21T18:21:04.365Z,102.13
2022-11-21T18:23:31.151Z,106.30
2022-11-21T18:26:09.693Z,107.37
2022-11-21T18:28:36.179Z,111.40
2022-11-21T18:31:23.272Z,104.07
2022-11-21T18:33:52.082Z,108.57
2022-11-21T18:36:19.198Z,101.53
2022-11-21T18:38:49.573Z,113.83
2022-11-21T18:41:28.304Z,102.43
2022-11-21T18:43:59.498Z,104.60
2022-11-21T18:46:27.741Z,101.80
2022-11-21T18:49:02.807Z,108.50
2022-11-21T18:51:32.003Z,108.33
2022-11-21T18:54:00.408Z,103.70
2022-11-21T18:56:27.071Z,99.70
2022-11-21T18:58:58.388Z,101.20
2022-11-21T19:01:27.996Z,98.17
2022-11-21T19:03:55.246Z,99.37
2022-11-21T19:06:23.255Z,96.83
2022-11-21T19:08:53.124Z,89.93
2022-11-21T19:11:20.601Z,95.03
2022-11-21T19:13:47.928Z,102.43
2022-11-21T19:16:17.236Z,96.07
2022-11-21T19:18:48.486Z,91.63
2022-11-21T19:21:21.980Z,95.63
2022-11-21T19:23:49.073Z,92.83
2022-11-21T19:26:18.286Z,95.97
2022-11-21T19:28:45.589Z,91.73
2022-11-21T19:31:14.769Z,85.93
2022-11-21T19:33:41.744Z,98.37
2022-11-21T19:36:19.521Z,86.60
2022-11-21T19:38:50.667Z,92.73
2022-11-21T19:41:21.060Z,82.10
2022-11-21T19:43:51.238Z,87.83
2022-11-21T19:46:23.185Z,96.33
2022-11-21T19:48:51.085Z,85.27
2022-11-21T19:51:18.508Z,86.80
2022-11-21T19:53:45.674Z,91.00
2022-11-21T19:56:20.400Z,85.63
2022-11-21T19:58:47.931Z,84.60
2022-11-21T20:01:20.160Z,91.27
2022-11-21T20:03:49.799Z,83.87
2022-11-21T20:06:24.746Z,86.63
2022-11-21T20:08:55.906Z,92.37
2022-11-21T20:11:23.381Z,80.90
2022-11-21T20:13:50.932Z,86.60
2022-11-21T20:16:19.370Z,93.03
2022-11-21T20:18:46.455Z,93.20
2022-11-21T20:21:13.582Z,85.93
2022-11-21T20:23:40.389Z,85.17
2022-11-21T20:26:08.120Z,84.43
2022-11-21T20:28:36.892Z,84.73
2022-11-21T20:31:11.656Z,90.53
2022-11-21T20:33:39.953Z,99.60
2022-11-21T20:36:11.265Z,94.50
2022-11-21T20:38:37.993Z,91.80
2022-11-21T20:41:05.164Z,91.80
2022-11-21T20:43:59.509Z,100.00
2022-11-21T20:46:20.664Z,90.23
2022-11-21T20:48:47.787Z,99.80
2022-11-21T20:52:43.328Z,100.77
2022-11-21T20:54:03.631Z,102.17
2022-11-21T20:56:35.188Z,99.80
2022-11-21T20:59:01.858Z,101.40
2022-11-21T21:01:28.613Z,95.13
2022-11-21T21:03:55.485Z,97.87
2022-11-21T21:06:24.167Z,95.30
2022-11-21T21:08:51.627Z,95.37
2022-11-21T21:11:49.760Z,95.80
2022-11-21T21:14:07.940Z,104.27
2022-11-21T21:16:36.205Z,100.23
2022-11-21T21:19:02.700Z,99.73
2022-11-21T21:21:30.848Z,101.50
2022-11-21T21:24:02.125Z,107.70
2022-11-21T21:26:30.761Z,103.80
2022-11-21T21:28:58.324Z,102.03
2022-11-21T21:31:24.924Z,102.27
2022-11-21T21:33:51.891Z,94.30
2022-11-21T21:36:20.944Z,101.60
2022-11-21T21:38:54.724Z,98.80
2022-11-21T21:41:22.143Z,100.13
2022-11-21T21:43:49.919Z,103.83
2022-11-21T21:46:18.102Z,93.87
2022-11-21T21:48:45.335Z,102.67
2022-11-21T21:51:21.904Z,99.17
2022-11-21T21:53:50.103Z,94.20
2022-11-21T21:56:18.600Z,96.80
2022-11-21T21:58:46.130Z,96.17
2022-11-21T22:01:32.398Z,101.00
2022-11-21T22:04:00.960Z,96.13
2022-11-21T22:06:28.216Z,92.37
2022-11-21T22:08:55.099Z,100.27
2022-11-21T22:11:23.991Z,97.90
2022-11-21T22:13:58.851Z,95.30
2022-11-21T22:16:25.550Z,97.73
2022-11-21T22:18:52.397Z,93.70
2022-11-21T22:21:24.568Z,98.27
2022-11-21T22:24:22.919Z,97.03
2022-11-21T22:26:37.930Z,87.43
2022-11-21T22:29:04.589Z,96.77
2022-11-21T22:31:32.051Z,84.80
2022-11-21T22:33:58.860Z,100.07
2022-11-21T22:36:25.468Z,85.77
2022-11-21T22:38:56.046Z,88.30
2022-11-21T22:41:24.724Z,87.17
2022-11-21T22:43:53.370Z,89.43
2022-11-21T22:46:20.534Z,92.03
2022-11-21T22:48:47.740Z,94.33
2022-11-21T22:51:17.124Z,87.57
2022-11-21T22:53:45.904Z,87.90
2022-11-21T22:56:12.964Z,94.93
2022-11-21T22:58:40.430Z,96.57
2022-11-21T23:01:10.012Z,84.57
2022-11-21T23:03:36.763Z,83.27
2022-11-21T23:06:04.746Z,87.73
2022-11-21T23:08:31.719Z,94.87
2022-11-21T23:11:08.217Z,94.77
2022-11-21T23:13:35.879Z,90.70
2022-11-21T23:16:03.368Z,89.20
2022-11-21T23:18:30.522Z,88.67
2022-11-21T23:20:57.141Z,82.73
2022-11-21T23:23:23.767Z,85.63
2022-11-21T23:25:50.300Z,95.03
2022-11-21T23:28:16.860Z,88.63
2022-11-21T23:30:44.841Z,83.57
2022-11-21T23:33:11.855Z,84.37
2022-11-21T23:35:38.414Z,81.07
2022-11-21T23:38:05.020Z,86.47
2022-11-21T23:40:31.676Z,85.90
2022-11-21T23:42:58.233Z,87.00
2022-11-21T23:45:24.868Z,88.97
2022-11-21T23:47:51.706Z,81.83
2022-11-21T23:50:19.476Z,80.27
2022-11-21T23:52:46.568Z,82.00
2022-11-21T23:55:13.272Z,87.00
2022-11-21T23:57:39.899Z,86.07
